Time;durP1;ratioP1;P1;durP2;ratioP2;P2;SDS_P1;SDS_P2;PMS_P1;PMS_P2;Temp;Humidity;BMP_temperature;BMP_pressure;BME280_temperature;BME280_humidity;BME280_pressure;Samples;Min_cycle;Max_cycle;Signal;HPM_P1;HPM_P2
2021/10/11 01:13:02;;;;;;;18.95;13.05;;;307.40;2304.00;;;;;;4992290;28;20099;-87
2021/10/11 01:16:40;;;;;;;;;;;;;;;;;;;;;
2021/10/11 03:10:20;;;;;;;8.13;5.43;;;307.30;2304.00;;;;;;5053930;28;20047;-88
2021/10/11 03:24:01;;;;;;;8.18;6.00;;;307.80;2304.00;;;;;;5033428;28;20052;-86
2021/10/11 03:45:01;;;;;;;11.02;6.70;;;282.50;2278.40;;;;;;4842550;29;20202;-87
2021/10/11 04:24:00;;;;;;;18.05;11.80;;;282.20;2278.40;;;;;;4926789;28;20050;-87
2021/10/11 04:31:30;;;;;;;14.80;10.13;;;282.10;2278.40;;;;;;4914623;29;20166;-86
2021/10/11 04:35:06;;;;;;;11.95;9.25;;;282.00;2278.40;;;;;;4908769;29;20047;-86
2021/10/11 04:38:51;;;;;;;12.02;8.88;;;282.00;2278.40;;;;;;4875752;29;20045;-86
2021/10/11 04:42:31;;;;;;;11.25;9.10;;;282.00;2278.40;;;;;;4900375;29;20055;-85
2021/10/11 04:46:04;;;;;;;11.40;7.97;;;282.00;2278.40;;;;;;4896637;29;20036;-84
2021/10/11 04:49:18;;;;;;;12.65;8.98;;;282.10;2278.40;;;;;;4836031;29;20045;-86
2021/10/11 04:52:33;;;;;;;;;;;282.10;2278.40;;;;;;4841370;29;20045;-87
2021/10/11 04:56:11;;;;;;;14.02;9.55;;;282.10;2278.40;;;;;;4786561;30;20008;-86
2021/10/11 04:59:50;;;;;;;10.35;9.25;;;282.00;2278.40;;;;;;4750993;30;20048;-85
2021/10/11 05:03:17;;;;;;;12.70;10.43;;;281.90;2278.40;;;;;;4768754;30;20116;-86
2021/10/11 05:21:21;;;;;;;40.70;36.10;;;282.00;2278.40;;;;;;4681023;30;20193;-89
2021/10/11 07:41:31;;;;;;;27.08;22.85;;;281.80;2278.40;;;;;;5053471;28;20068;-85
2021/10/11 07:45:02;;;;;;;29.80;24.60;;;281.60;2278.40;;;;;;5036704;28;20095;-83
2021/10/11 07:51:58;;;;;;;40.97;24.80;;;281.80;2278.40;;;;;;5075393;28;20027;-84
2021/10/11 07:55:20;;;;;;;66.00;44.13;;;281.80;2278.40;;;;;;5005300;28;20355;-86
2021/10/11 07:58:44;;;;;;;31.88;23.60;;;281.70;2278.40;;;;;;5033030;28;20425;-86
2021/10/11 08:01:31;;;;;;;54.80;37.10;;;281.70;2278.40;;;;;;5026893;28;20021;-82
2021/10/11 08:04:03;;;;;;;58.97;41.35;;;281.70;2278.40;;;;;;5021800;28;20044;-82
2021/10/11 08:06:57;;;;;;;47.63;35.42;;;281.90;2278.40;;;;;;5027669;28;20034;-87
2021/10/11 08:12:53;;;;;;;47.05;40.05;;;281.70;2278.40;;;;;;4935471;29;20091;-79
2021/10/11 08:15:21;;;;;;;34.03;29.58;;;281.70;2278.40;;;;;;4935043;29;20040;-76
2021/10/11 08:18:11;;;;;;;36.53;29.10;;;281.70;2278.40;;;;;;4955915;28;20057;-82
2021/10/11 08:21:16;;;;;;;34.60;30.85;;;281.70;2278.40;;;;;;4989170;28;20088;-84
2021/10/11 08:24:12;;;;;;;48.65;43.40;;;281.80;2278.40;;;;;;4991667;28;20038;-81
2021/10/11 08:30:01;;;;;;;20.67;18.48;;;281.70;2278.40;;;;;;4993071;28;20093;-83
2021/10/11 08:33:05;;;;;;;28.40;25.23;;;281.70;2278.40;;;;;;4954886;28;20037;-83
2021/10/11 08:36:14;;;;;;;27.48;24.52;;;281.70;2278.40;;;;;;4941919;29;20030;-83
2021/10/11 08:38:54;;;;;;;26.88;24.27;;;281.80;2278.40;;;;;;4954133;29;20082;-83
2021/10/11 08:41:23;;;;;;;18.42;16.30;;;281.80;2278.40;;;;;;4953705;29;20035;-83
2021/10/11 08:44:54;;;;;;;21.60;14.80;;;281.90;2278.40;;;;;;4956460;28;20023;-85
2021/10/11 08:48:44;;;;;;;15.55;13.82;;;282.00;2278.40;;;;;;5059707;28;20578;-84
2021/10/11 08:55:53;;;;;;;17.95;15.82;;;282.10;2278.40;;;;;;4840451;29;20086;-84
2021/10/11 08:59:28;;;;;;;17.27;11.45;;;282.00;2278.40;;;;;;4794425;29;20070;-85
2021/10/11 09:10:21;;;;;;;27.80;22.52;;;282.10;2278.40;;;;;;4715157;30;20110;-85
2021/10/11 09:23:38;;;;;;;42.38;27.80;;;282.00;2278.40;;;;;;4641344;30;20045;-84
2021/10/11 09:27:20;;;;;;;36.72;26.02;;;281.90;2278.40;;;;;;4654183;30;20458;-84
2021/10/11 09:30:48;;;;;;;73.47;58.30;;;282.10;2278.40;;;;;;4714649;30;20041;-84
2021/10/11 09:34:07;;;;;;;54.25;46.90;;;282.10;2278.40;;;;;;4804240;29;20085;-85
2021/10/11 09:37:32;;;;;;;37.20;32.42;;;282.00;2278.40;;;;;;4830809;29;20042;-82
2021/10/11 09:41:02;;;;;;;30.63;26.45;;;281.80;2278.40;;;;;;4857775;29;20064;-84
2021/10/11 09:44:29;;;;;;;;;;;;;;;;;;;;;
2021/10/11 09:47:39;;;;;;;24.20;20.63;;;281.80;2278.40;;;;;;4892433;29;20047;-83
2021/10/11 09:50:47;;;;;;;28.75;24.83;;;281.80;2278.40;;;;;;4969475;28;20023;-79
2021/10/11 09:54:04;;;;;;;37.38;31.33;;;282.00;2278.40;;;;;;4959234;28;20034;-80
2021/10/11 09:56:39;;;;;;;38.60;34.47;;;281.90;2278.40;;;;;;5032765;28;20041;-84
2021/10/11 09:59:30;;;;;;;30.00;24.52;;;281.90;2278.40;;;;;;5071091;28;20425;-81
2021/10/11 10:02:59;;;;;;;33.45;29.38;;;282.00;2278.40;;;;;;5054042;28;20594;-83
2021/10/11 10:13:35;;;;;;;33.03;29.48;;;282.00;2278.40;;;;;;4936586;29;20118;-81
2021/10/11 10:17:12;;;;;;;23.17;20.85;;;282.00;2278.40;;;;;;4917988;29;20044;-83
2021/10/11 10:20:37;;;;;;;32.40;28.40;;;281.90;2278.40;;;;;;4771566;30;20047;-83
2021/10/11 10:24:09;;;;;;;37.50;33.45;;;281.80;2278.40;;;;;;4718097;30;20159;-84
2021/10/11 10:27:54;;;;;;;21.80;19.50;;;282.00;2278.40;;;;;;4689671;30;20529;-83
2021/10/11 10:49:09;;;;;;;29.13;25.15;;;282.00;2278.40;;;;;;4632866;30;20459;-83
2021/10/11 10:52:56;;;;;;;29.88;25.00;;;282.40;2278.40;;;;;;4598862;31;20040;-83
2021/10/11 10:56:26;;;;;;;34.53;28.52;;;282.00;2278.40;;;;;;4643963;30;20117;-83
2021/10/11 11:03:26;;;;;;;31.27;23.63;;;282.10;2278.40;;;;;;4717619;30;20072;-84
2021/10/11 11:06:06;;;;;;;34.35;27.00;;;282.30;2278.40;;;;;;4699759;30;20048;-81
2021/10/11 11:12:47;;;;;;;65.53;55.08;;;282.20;2278.40;;;;;;4700017;30;20033;-86
2021/10/11 11:16:13;;;;;;;51.15;39.42;;;282.20;2278.40;;;;;;4682831;30;20034;-83
2021/10/11 11:19:46;;;;;;;54.92;43.58;;;281.90;2278.40;;;;;;4714968;30;20037;-84
2021/10/11 12:01:26;;;;;;;92.82;82.10;;;282.30;2278.40;;;;;;4787120;30;20103;-81
2021/10/11 12:11:14;;;;;;;43.47;36.88;;;282.40;2278.40;;;;;;4860658;29;20025;-85
2021/10/11 12:15:09;;;;;;;46.67;41.55;;;282.40;2278.40;;;;;;4851387;29;20029;-85
2021/10/11 12:19:09;;;;;;;42.95;34.17;;;282.40;2278.40;;;;;;4878691;29;20040;-83
2021/10/11 12:26:30;;;;;;;26.40;21.95;;;282.20;2278.40;;;;;;4804986;29;20045;-84
2021/10/11 12:36:00;;;;;;;31.52;24.63;;;282.20;2278.40;;;;;;5111149;27;20365;-77
2021/10/11 12:38:35;;;;;;;37.67;27.75;;;282.20;2278.40;;;;;;5111660;28;20119;-78
2021/10/11 12:41:10;;;;;;;33.38;26.48;;;282.20;2278.40;;;;;;5111782;28;20024;-78
2021/10/11 12:43:36;;;;;;;31.98;28.00;;;282.30;2278.40;;;;;;5110003;28;20027;-77
2021/10/11 12:46:08;;;;;;;23.05;19.42;;;282.30;2278.40;;;;;;5110503;28;20520;-80
2021/10/11 12:48:35;;;;;;;;;;;282.20;2278.40;;;;;;5110583;28;20119;-79
2021/10/11 12:51:01;;;;;;;21.95;16.50;;;282.20;2278.40;;;;;;5111623;28;19995;-78
2021/10/11 12:53:28;;;;;;;17.75;14.25;;;281.90;2278.40;;;;;;5110449;28;20534;-79
2021/10/11 12:55:55;;;;;;;20.70;15.43;;;282.20;2278.40;;;;;;5111259;28;20032;-78
2021/10/11 12:58:25;;;;;;;22.73;18.08;;;282.20;2278.40;;;;;;5111093;28;20071;-77
2021/10/11 13:00:53;;;;;;;15.00;13.35;;;282.10;2278.40;;;;;;5111004;28;20027;-81
2021/10/11 13:03:19;;;;;;;51.42;46.65;;;282.20;2278.40;;;;;;5109326;28;20024;-81
2021/10/11 13:05:45;;;;;;;56.20;51.08;;;282.20;2278.40;;;;;;5110593;28;20024;-80
2021/10/11 13:08:11;;;;;;;22.15;19.95;;;282.20;2278.40;;;;;;5109917;28;20483;-78
2021/10/11 13:10:38;;;;;;;21.13;18.90;;;282.00;2278.40;;;;;;5108633;28;20027;-79
2021/10/11 13:13:04;;;;;;;18.58;15.93;;;282.00;2278.40;;;;;;5109334;28;20100;-78
2021/10/11 13:15:31;;;;;;;16.98;14.18;;;281.90;2278.40;;;;;;5109232;28;20059;-80
2021/10/11 13:17:58;;;;;;;26.05;19.55;;;282.00;2278.40;;;;;;5109320;28;20442;-78
2021/10/11 13:20:24;;;;;;;18.35;16.20;;;282.00;2278.40;;;;;;5109477;28;20023;-80
2021/10/11 13:22:50;;;;;;;18.23;15.57;;;282.00;2278.40;;;;;;5109272;28;20424;-78
2021/10/11 13:25:16;;;;;;;26.40;23.52;;;282.00;2278.40;;;;;;5108847;28;20043;-79
2021/10/11 13:27:42;;;;;;;29.60;25.15;;;282.10;2278.40;;;;;;5109228;28;20379;-76
2021/10/11 13:30:46;;;;;;;33.92;30.58;;;282.10;2278.40;;;;;;5109467;28;20065;-78
2021/10/11 14:29:58;;;;;;;20.80;17.33;;;256.80;2252.80;;;;;;5096152;28;20052;-77
2021/10/11 15:59:51;;;;;;;23.58;18.65;;;256.20;2252.80;;;;;;5094412;28;20023;-82
2021/10/11 16:02:40;;;;;;;47.55;32.65;;;256.20;2252.80;;;;;;5092984;28;20030;-81
2021/10/11 16:05:04;;;;;;;39.78;27.95;;;256.20;2252.80;;;;;;5093748;28;20040;-83
2021/10/11 16:07:31;;;;;;;31.35;22.55;;;230.90;2252.80;;;;;;5094155;28;20020;-79
2021/10/11 16:09:57;;;;;;;26.58;19.70;;;256.10;2252.80;;;;;;5093557;28;20066;-79
2021/10/11 16:12:23;;;;;;;21.70;16.23;;;256.00;2252.80;;;;;;5093753;28;20031;-77
2021/10/11 16:14:49;;;;;;;28.48;21.63;;;256.10;2252.80;;;;;;5092563;28;20032;-75
2021/10/11 16:17:14;;;;;;;21.60;17.27;;;256.20;2252.80;;;;;;5092700;28;20467;-79
2021/10/11 16:19:40;;;;;;;23.17;16.55;;;256.10;2252.80;;;;;;5092318;28;20034;-76
2021/10/11 16:22:07;;;;;;;29.55;22.30;;;256.10;2252.80;;;;;;5092555;28;20085;-76
2021/10/11 16:24:33;;;;;;;29.73;21.35;;;256.10;2252.80;;;;;;5092429;28;20035;-76
2021/10/11 16:26:58;;;;;;;22.17;15.40;;;256.00;2252.80;;;;;;5092248;28;20084;-79
2021/10/11 16:29:24;;;;;;;17.90;13.32;;;256.00;2252.80;;;;;;5092583;28;20028;-79
2021/10/11 16:31:50;;;;;;;12.18;9.77;;;256.00;2252.80;;;;;;5093804;28;20020;-76
2021/10/11 16:34:21;;;;;;;10.35;6.68;;;256.00;2252.80;;;;;;5109025;28;20135;-79
2021/10/11 16:36:51;;;;;;;32.50;24.55;;;256.00;2252.80;;;;;;5094114;28;20039;-81
2021/10/11 16:39:18;;;;;;;61.70;40.08;;;256.00;2252.80;;;;;;5092271;28;20020;-83
2021/10/11 16:41:44;;;;;;;17.80;11.60;;;256.00;2252.80;;;;;;5094096;28;20024;-80
2021/10/11 16:44:13;;;;;;;23.83;17.70;;;256.00;2252.80;;;;;;5092770;28;20032;-84
2021/10/11 16:46:40;;;;;;;20.23;15.10;;;256.00;2252.80;;;;;;5092611;28;20411;-83
2021/10/11 16:49:06;;;;;;;33.40;24.27;;;256.00;2252.80;;;;;;5093860;28;20376;-80
2021/10/11 16:51:33;;;;;;;10.60;8.20;;;256.00;2252.80;;;;;;5092500;28;20028;-81
2021/10/11 16:56:25;;;;;;;14.57;10.65;;;256.00;2252.80;;;;;;5093889;28;20030;-84
2021/10/11 16:58:52;;;;;;;20.63;14.25;;;256.00;2252.80;;;;;;5092100;28;20112;-83
2021/10/11 17:01:18;;;;;;;14.27;11.48;;;231.30;2252.80;;;;;;5091886;28;20130;-82
2021/10/11 17:03:44;;;;;;;14.90;10.80;;;231.30;2252.80;;;;;;5092608;28;20042;-83
2021/10/11 17:06:10;;;;;;;8.13;5.90;;;231.30;2252.80;;;;;;5092409;28;20382;-83
2021/10/11 17:08:36;;;;;;;18.40;10.07;;;231.30;2252.80;;;;;;5109179;28;20035;-84
2021/10/11 17:11:02;;;;;;;30.52;18.63;;;231.30;2252.80;;;;;;5092284;28;20027;-82
2021/10/11 17:13:28;;;;;;;49.33;27.92;;;231.30;2252.80;;;;;;5093914;28;20036;-83
2021/10/11 17:15:54;;;;;;;38.60;21.02;;;231.30;2252.80;;;;;;5092269;28;20032;-82
2021/10/11 17:18:20;;;;;;;25.38;16.60;;;231.20;2252.80;;;;;;5092237;28;20034;-85
2021/10/11 17:20:46;;;;;;;37.17;22.75;;;231.20;2252.80;;;;;;5093061;28;20393;-82
2021/10/11 17:23:12;;;;;;;17.50;12.07;;;231.20;2252.80;;;;;;5097117;28;20032;-82
2021/10/11 17:25:37;;;;;;;24.75;15.80;;;231.20;2252.80;;;;;;5096131;28;20031;-82
2021/10/11 17:28:03;;;;;;;19.90;13.88;;;231.20;2252.80;;;;;;5096060;28;20024;-81
2021/10/11 17:30:29;;;;;;;17.92;13.07;;;231.20;2252.80;;;;;;5095700;28;20490;-83
2021/10/11 17:32:55;;;;;;;15.43;12.32;;;231.20;2252.80;;;;;;5095844;28;20132;-80
2021/10/11 17:35:24;;;;;;;20.85;15.43;;;231.20;2252.80;;;;;;5095450;28;20055;-82
2021/10/11 17:37:51;;;;;;;24.98;19.10;;;231.20;2252.80;;;;;;5095947;28;20028;-83
2021/10/11 17:40:18;;;;;;;28.42;18.65;;;231.20;2252.80;;;;;;5095779;28;20521;-83
2021/10/11 17:42:44;;;;;;;18.00;12.95;;;231.20;2252.80;;;;;;5096000;28;20048;-82
2021/10/11 17:45:10;;;;;;;16.27;13.00;;;231.30;2252.80;;;;;;5095707;28;20119;-81
2021/10/11 17:47:36;;;;;;;28.60;21.98;;;231.30;2252.80;;;;;;5095719;28;20070;-82
2021/10/11 17:50:06;;;;;;;29.65;24.52;;;231.20;2252.80;;;;;;5095446;28;20353;-82
2021/10/11 17:52:33;;;;;;;29.30;22.05;;;231.20;2252.80;;;;;;5095621;28;20028;-83
2021/10/11 17:55:00;;;;;;;35.28;25.15;;;231.20;2252.80;;;;;;5096536;28;20357;-81
2021/10/11 17:57:27;;;;;;;31.88;24.67;;;231.20;2252.80;;;;;;5095129;28;20031;-83
2021/10/11 17:59:53;;;;;;;37.88;26.55;;;231.20;2252.80;;;;;;5095257;28;20028;-81
2021/10/11 18:02:19;;;;;;;26.63;17.73;;;231.20;2252.80;;;;;;5096839;28;20024;-80
2021/10/11 18:04:45;;;;;;;27.73;17.73;;;231.20;2252.80;;;;;;5095520;28;20531;-81
2021/10/11 18:07:11;;;;;;;21.73;16.10;;;231.20;2252.80;;;;;;5095208;28;20115;-81
2021/10/11 18:09:37;;;;;;;25.45;17.55;;;231.20;2252.80;;;;;;5096540;28;20099;-85
2021/10/11 18:12:03;;;;;;;16.73;9.77;;;231.20;2252.80;;;;;;5094929;28;20067;-82
2021/10/11 18:14:29;;;;;;;19.45;12.70;;;231.20;2252.80;;;;;;5112218;28;20036;-82
2021/10/11 18:16:55;;;;;;;24.52;16.63;;;231.20;2252.80;;;;;;5095111;28;20024;-83
2021/10/11 18:19:21;;;;;;;28.17;19.38;;;231.20;2252.80;;;;;;5094970;28;20027;-81
2021/10/11 18:21:47;;;;;;;30.60;20.45;;;231.20;2252.80;;;;;;5096229;28;20027;-83
2021/10/11 18:24:12;;;;;;;28.60;18.52;;;231.20;2252.80;;;;;;5094720;28;20028;-82
2021/10/11 18:26:39;;;;;;;19.05;13.38;;;231.20;2252.80;;;;;;5094890;28;20091;-81
2021/10/11 18:29:07;;;;;;;21.17;14.57;;;231.30;2252.80;;;;;;5094879;28;20024;-82
2021/10/11 18:31:34;;;;;;;22.00;14.88;;;231.30;2252.80;;;;;;5094316;28;20396;-80
2021/10/11 18:34:01;;;;;;;21.40;14.68;;;256.00;2252.80;;;;;;5095695;28;20126;-79
2021/10/11 18:36:27;;;;;;;18.30;11.95;;;231.30;2252.80;;;;;;5094583;28;20034;-81
2021/10/11 18:38:52;;;;;;;31.67;23.63;;;231.20;2252.80;;;;;;5094359;28;20032;-80
2021/10/11 18:41:19;;;;;;;54.45;49.40;;;231.20;2252.80;;;;;;5095885;28;20020;-81
2021/10/11 18:43:44;;;;;;;29.38;26.23;;;231.20;2252.80;;;;;;5095693;28;20028;-80
2021/10/11 18:46:11;;;;;;;16.63;13.93;;;231.20;2252.80;;;;;;5094129;28;20081;-80
2021/10/11 18:48:38;;;;;;;21.52;16.38;;;231.20;2252.80;;;;;;5094374;28;20058;-81
2021/10/11 18:51:04;;;;;;;19.00;13.57;;;231.30;2252.80;;;;;;5094193;28;20400;-81
2021/10/11 18:53:30;;;;;;;22.05;14.30;;;231.30;2252.80;;;;;;5093982;28;20028;-80
2021/10/11 18:55:58;;;;;;;23.42;13.80;;;231.20;2252.80;;;;;;5094148;28;20504;-83
2021/10/11 18:58:24;;;;;;;25.63;16.98;;;231.30;2252.80;;;;;;5094492;28;20483;-81
2021/10/11 19:00:50;;;;;;;32.53;17.67;;;231.30;2252.80;;;;;;5093469;28;20024;-78
2021/10/11 19:03:16;;;;;;;35.97;23.67;;;231.30;2252.80;;;;;;5093938;28;20051;-80
2021/10/11 19:05:42;;;;;;;32.40;23.13;;;231.30;2252.80;;;;;;5095316;28;20407;-83
2021/10/11 19:08:07;;;;;;;46.58;34.65;;;231.30;2252.80;;;;;;5093667;28;20070;-79
2021/10/11 19:10:33;;;;;;;49.78;39.60;;;256.00;2252.80;;;;;;5093963;28;20383;-80
2021/10/11 19:12:59;;;;;;;32.40;27.05;;;256.00;2252.80;;;;;;5093809;28;20127;-81
2021/10/11 19:15:25;;;;;;;39.00;31.42;;;256.00;2252.80;;;;;;5093432;28;20043;-79
2021/10/11 19:17:51;;;;;;;30.65;23.45;;;256.00;2252.80;;;;;;5093551;28;20020;-79
2021/10/11 19:20:17;;;;;;;34.17;26.83;;;231.30;2252.80;;;;;;5093165;28;20024;-78
2021/10/11 19:22:43;;;;;;;21.23;15.35;;;256.00;2252.80;;;;;;5094842;28;20028;-79
2021/10/11 19:25:13;;;;;;;29.17;21.77;;;256.00;2252.80;;;;;;5093233;28;20072;-77
2021/10/11 19:27:40;;;;;;;77.97;54.13;;;256.00;2252.80;;;;;;5093011;28;20032;-77
2021/10/11 19:30:08;;;;;;;33.53;24.88;;;256.00;2252.80;;;;;;5092071;28;20024;-78
2021/10/11 19:32:34;;;;;;;38.50;31.17;;;231.30;2252.80;;;;;;5093265;28;20035;-80
2021/10/11 19:34:59;;;;;;;62.55;30.35;;;231.20;2252.80;;;;;;5092476;28;20056;-81
2021/10/11 19:37:25;;;;;;;66.25;45.08;;;231.20;2252.80;;;;;;5094782;28;20039;-81
2021/10/11 19:39:51;;;;;;;75.38;42.70;;;231.30;2252.80;;;;;;5092969;28;20020;-77
2021/10/11 19:42:17;;;;;;;58.75;33.63;;;231.30;2252.80;;;;;;5094161;28;20024;-77
2021/10/11 19:44:43;;;;;;;65.38;37.42;;;231.30;2252.80;;;;;;5093557;28;20028;-79
2021/10/11 19:47:09;;;;;;;39.35;21.35;;;256.00;2252.80;;;;;;5090962;28;20024;-77
2021/10/11 19:49:34;;;;;;;29.20;14.82;;;231.30;2252.80;;;;;;5092884;28;20020;-78
2021/10/11 19:52:01;;;;;;;31.98;19.98;;;256.00;2252.80;;;;;;5093610;28;20020;-78
2021/10/11 19:54:27;;;;;;;20.40;10.35;;;231.30;2252.80;;;;;;5092713;28;20102;-77
2021/10/11 19:56:53;;;;;;;35.97;21.08;;;231.30;2252.80;;;;;;5093985;28;20088;-76
2021/10/11 19:59:19;;;;;;;54.90;30.88;;;231.30;2252.80;;;;;;5094410;28;20024;-78
2021/10/11 20:01:46;;;;;;;28.17;18.67;;;231.30;2252.80;;;;;;5092844;28;20391;-78
2021/10/11 20:04:12;;;;;;;19.00;15.55;;;231.30;2252.80;;;;;;5092455;28;20031;-77
2021/10/11 20:06:38;;;;;;;22.17;15.15;;;231.20;2252.80;;;;;;5094066;28;20016;-77
2021/10/11 20:09:05;;;;;;;21.77;17.60;;;231.20;2252.80;;;;;;5094062;28;20028;-78
2021/10/11 20:11:30;;;;;;;20.88;14.75;;;231.30;2252.80;;;;;;5093780;28;20032;-80
2021/10/11 20:13:56;;;;;;;22.50;15.20;;;231.30;2252.80;;;;;;5092652;28;20039;-78
2021/10/11 20:16:22;;;;;;;36.63;29.55;;;231.20;2252.80;;;;;;5092333;28;20028;-77
2021/10/11 20:18:48;;;;;;;28.85;22.23;;;231.30;2252.80;;;;;;5093885;28;20024;-78
2021/10/11 20:21:14;;;;;;;21.10;17.92;;;231.20;2252.80;;;;;;5093808;28;20028;-78
2021/10/11 20:23:39;;;;;;;18.92;13.10;;;231.30;2252.80;;;;;;5093460;28;20454;-81
2021/10/11 20:26:06;;;;;;;18.08;14.38;;;231.20;2252.80;;;;;;5092613;28;20044;-77
2021/10/11 20:28:32;;;;;;;25.65;18.13;;;231.30;2252.80;;;;;;5093587;28;20027;-77
2021/10/11 20:30:58;;;;;;;24.33;21.10;;;231.30;2252.80;;;;;;5093250;28;20103;-81
2021/10/11 20:33:25;;;;;;;18.52;16.58;;;231.30;2252.80;;;;;;5089537;28;20403;-79
2021/10/11 20:35:51;;;;;;;18.77;17.05;;;231.20;2252.80;;;;;;5075563;28;20071;-78
2021/10/11 20:38:17;;;;;;;12.13;9.75;;;231.30;2252.80;;;;;;5072360;28;20025;-79
2021/10/11 20:40:42;;;;;;;14.93;12.32;;;231.30;2252.80;;;;;;5085205;28;20089;-78
2021/10/11 20:43:08;;;;;;;16.40;13.90;;;256.00;2252.80;;;;;;5091258;28;20114;-78
2021/10/11 20:45:34;;;;;;;16.92;13.40;;;256.00;2252.80;;;;;;5092593;28;20036;-79
2021/10/11 20:48:00;;;;;;;15.70;12.50;;;256.00;2252.80;;;;;;5091113;28;20058;-80
2021/10/11 20:50:26;;;;;;;13.50;10.52;;;256.00;2252.80;;;;;;5091624;28;20477;-79
2021/10/11 20:52:51;;;;;;;14.55;10.30;;;256.10;2252.80;;;;;;5092449;28;20073;-81
2021/10/11 20:55:18;;;;;;;13.82;11.00;;;256.10;2252.80;;;;;;5091974;28;20384;-77
2021/10/11 20:57:44;;;;;;;11.40;8.95;;;256.00;2252.80;;;;;;5095591;28;20118;-78
2021/10/11 21:00:11;;;;;;;19.38;16.50;;;256.20;2252.80;;;;;;5095196;28;20126;-77
2021/10/11 21:02:37;;;;;;;19.75;14.77;;;256.20;2252.80;;;;;;5096022;28;20077;-79
2021/10/11 21:05:03;;;;;;;20.90;15.88;;;256.20;2252.80;;;;;;5095358;28;20088;-80
2021/10/11 21:07:29;;;;;;;18.98;13.52;;;256.30;2252.80;;;;;;5096528;28;20035;-81
2021/10/11 21:09:55;;;;;;;16.80;12.18;;;256.10;2252.80;;;;;;5094690;28;20024;-75
2021/10/11 21:12:21;;;;;;;24.42;15.90;;;256.10;2252.80;;;;;;5095737;28;20027;-80
2021/10/11 21:14:47;;;;;;;13.15;9.23;;;256.20;2252.80;;;;;;5096425;28;20040;-77
2021/10/11 21:17:12;;;;;;;13.50;10.45;;;256.10;2252.80;;;;;;5095276;28;20036;-79
2021/10/11 21:19:38;;;;;;;17.67;11.82;;;256.00;2252.80;;;;;;5094456;28;20097;-77
2021/10/11 21:22:04;;;;;;;29.98;19.55;;;256.00;2252.80;;;;;;5096102;28;20031;-79
2021/10/11 21:24:30;;;;;;;23.67;16.25;;;256.00;2252.80;;;;;;5095090;28;20066;-78
2021/10/11 21:26:56;;;;;;;16.40;10.45;;;256.00;2252.80;;;;;;5095323;28;20020;-78
2021/10/11 21:29:22;;;;;;;14.00;9.38;;;256.00;2252.80;;;;;;5085756;28;20081;-76
2021/10/11 21:31:47;;;;;;;24.67;19.73;;;256.00;2252.80;;;;;;5074844;28;20031;-79
2021/10/11 21:34:14;;;;;;;27.60;21.83;;;256.10;2252.80;;;;;;5073687;28;20052;-76
2021/10/11 21:36:40;;;;;;;22.27;17.95;;;256.00;2252.80;;;;;;5074693;28;20040;-82
2021/10/11 21:39:06;;;;;;;14.05;11.13;;;256.10;2252.80;;;;;;5074421;28;20029;-78
2021/10/11 21:41:32;;;;;;;11.35;9.30;;;256.10;2252.80;;;;;;5075375;28;20036;-77
2021/10/11 21:43:58;;;;;;;16.38;10.18;;;256.00;2252.80;;;;;;5074117;28;20048;-79
2021/10/11 21:46:24;;;;;;;13.13;8.18;;;256.10;2252.80;;;;;;5074385;28;20035;-78
2021/10/11 21:48:50;;;;;;;13.27;10.05;;;256.20;2252.80;;;;;;5075203;28;20025;-78
2021/10/11 21:51:17;;;;;;;11.73;8.85;;;231.10;2252.80;;;;;;5075031;28;20020;-77
2021/10/11 21:53:43;;;;;;;8.85;6.90;;;256.10;2252.80;;;;;;5074134;28;20028;-79
2021/10/11 21:56:09;;;;;;;9.82;6.60;;;256.10;2252.80;;;;;;5074016;28;20069;-78
2021/10/11 21:58:34;;;;;;;9.43;6.38;;;256.00;2252.80;;;;;;5074132;28;20032;-79
2021/10/11 22:01:02;;;;;;;7.72;5.57;;;256.10;2252.80;;;;;;5074316;28;20131;-77
2021/10/11 22:03:30;;;;;;;9.05;5.70;;;256.10;2252.80;;;;;;5073737;28;20490;-78
2021/10/11 22:05:56;;;;;;;9.52;6.18;;;256.10;2252.80;;;;;;5073869;28;20032;-79
2021/10/11 22:08:22;;;;;;;8.77;5.97;;;256.20;2252.80;;;;;;5073806;28;20047;-80
2021/10/11 22:10:51;;;;;;;12.05;8.68;;;256.20;2252.80;;;;;;5074613;28;20131;-78
2021/10/11 22:13:18;;;;;;;8.85;6.10;;;256.20;2252.80;;;;;;5073532;28;20422;-78
2021/10/11 22:15:44;;;;;;;12.75;8.48;;;256.20;2252.80;;;;;;5073787;28;20498;-81
2021/10/11 22:18:10;;;;;;;11.63;7.90;;;256.20;2252.80;;;;;;5073456;28;20036;-79
2021/10/11 22:20:36;;;;;;;6.70;5.10;;;256.20;2252.80;;;;;;5073630;28;20029;-78
2021/10/11 22:23:07;;;;;;;9.85;6.82;;;256.20;2252.80;;;;;;5075087;28;20028;-81
2021/10/11 22:25:33;;;;;;;13.80;9.13;;;256.20;2252.80;;;;;;5073414;28;20032;-81
2021/10/11 22:28:00;;;;;;;20.88;13.93;;;256.20;2252.80;;;;;;5073533;28;20024;-81
2021/10/11 22:30:27;;;;;;;18.90;13.60;;;256.20;2252.80;;;;;;5073701;28;20021;-81
2021/10/11 22:32:53;;;;;;;14.05;10.35;;;256.20;2252.80;;;;;;5073072;28;20029;-79
2021/10/11 22:35:19;;;;;;;13.43;9.95;;;256.20;2252.80;;;;;;5073047;28;20045;-80
2021/10/11 22:37:46;;;;;;;13.25;9.00;;;256.20;2252.80;;;;;;5073539;28;20067;-79
2021/10/11 22:40:12;;;;;;;8.68;6.20;;;256.20;2252.80;;;;;;5074014;28;20028;-81
2021/10/11 22:42:38;;;;;;;8.30;6.30;;;256.20;2252.80;;;;;;5073316;28;20078;-79
2021/10/11 22:45:06;;;;;;;11.05;6.95;;;256.20;2252.80;;;;;;5073298;28;20029;-80
2021/10/11 22:47:32;;;;;;;13.15;8.93;;;256.20;2252.80;;;;;;5086654;28;20023;-79
2021/10/11 22:49:58;;;;;;;13.45;9.95;;;256.20;2252.80;;;;;;5094696;28;20448;-80
2021/10/11 22:52:30;;;;;;;14.85;11.05;;;256.20;2252.80;;;;;;5094385;28;20035;-82
2021/10/11 22:54:56;;;;;;;8.90;6.40;;;256.20;2252.80;;;;;;5094115;28;20126;-78
2021/10/11 22:57:22;;;;;;;6.70;4.53;;;256.10;2252.80;;;;;;5094316;28;20649;-79
2021/10/11 22:59:48;;;;;;;7.72;4.63;;;256.00;2252.80;;;;;;5095414;28;20066;-79
2021/10/11 23:02:14;;;;;;;8.57;5.80;;;256.00;2252.80;;;;;;5093840;28;20024;-78
2021/10/11 23:04:40;;;;;;;14.23;8.32;;;231.30;2252.80;;;;;;5094070;28;20513;-81
2021/10/11 23:07:07;;;;;;;10.40;6.50;;;256.00;2252.80;;;;;;5094148;28;20020;-83
2021/10/11 23:09:34;;;;;;;8.85;5.70;;;256.00;2252.80;;;;;;5095342;28;20464;-85
2021/10/11 23:12:00;;;;;;;9.93;6.38;;;256.00;2252.80;;;;;;5094047;28;20119;-80
2021/10/11 23:14:26;;;;;;;8.68;5.60;;;256.00;2252.80;;;;;;5094025;28;20036;-83
2021/10/11 23:16:52;;;;;;;11.60;6.93;;;256.00;2252.80;;;;;;5093671;28;20107;-80
2021/10/11 23:19:18;;;;;;;9.05;5.78;;;231.30;2252.80;;;;;;5093043;28;20024;-81
2021/10/11 23:21:44;;;;;;;9.75;6.60;;;231.10;2252.80;;;;;;5093459;28;20114;-82
2021/10/11 23:24:10;;;;;;;7.47;5.53;;;256.00;2252.80;;;;;;5093810;28;20055;-80
2021/10/11 23:26:36;;;;;;;8.27;5.57;;;231.30;2252.80;;;;;;5093677;28;20474;-79
2021/10/11 23:29:02;;;;;;;7.88;5.40;;;256.00;2252.80;;;;;;5094379;28;20074;-79
2021/10/11 23:31:28;;;;;;;11.05;6.25;;;256.00;2252.80;;;;;;5095448;28;20035;-81
2021/10/11 23:33:59;;;;;;;7.38;4.80;;;256.10;2252.80;;;;;;5093534;28;20044;-81
2021/10/11 23:36:28;;;;;;;5.88;4.10;;;256.00;2252.80;;;;;;5093694;28;20043;-81
2021/10/11 23:38:55;;;;;;;6.20;3.85;;;256.00;2252.80;;;;;;5093595;28;20024;-81
2021/10/11 23:41:22;;;;;;;6.97;4.82;;;256.10;2252.80;;;;;;5093623;28;20124;-82
2021/10/11 23:43:48;;;;;;;9.05;5.32;;;256.10;2252.80;;;;;;5093327;28;20027;-79
2021/10/11 23:46:14;;;;;;;8.70;5.20;;;256.00;2252.80;;;;;;5094850;28;20031;-79
2021/10/11 23:48:40;;;;;;;10.35;5.88;;;256.00;2252.80;;;;;;5093483;28;20032;-81
2021/10/11 23:51:05;;;;;;;9.30;5.10;;;256.00;2252.80;;;;;;5093279;28;20081;-81
2021/10/11 23:53:32;;;;;;;8.13;4.88;;;256.00;2252.80;;;;;;5093494;28;20027;-81
2021/10/11 23:55:58;;;;;;;6.47;4.60;;;230.90;2252.80;;;;;;5093276;28;20024;-83
2021/10/11 23:58:23;;;;;;;6.55;3.90;;;231.30;2252.80;;;;;;5093090;28;20032;-84
